sensor_id;sensor_type;location;lat;lon;timestamp;P1;durP1;ratioP1;P2;durP2;ratioP2
20095;SDS011;10207;50.942;6.900;2022-07-29T00:02:09;2.83;;;1.02;;
20095;SDS011;10207;50.942;6.900;2022-07-29T00:04:35;1.20;;;0.70;;
20095;SDS011;10207;50.942;6.900;2022-07-29T00:07:01;5.32;;;1.77;;
20095;SDS011;10207;50.942;6.900;2022-07-29T00:09:26;6.57;;;1.73;;
20095;SDS011;10207;50.942;6.900;2022-07-29T00:11:53;4.15;;;1.08;;
20095;SDS011;10207;50.942;6.900;2022-07-29T00:14:19;6.50;;;1.70;;
20095;SDS011;10207;50.942;6.900;2022-07-29T00:16:45;11.68;;;1.85;;
20095;SDS011;10207;50.942;6.900;2022-07-29T00:19:10;7.85;;;1.27;;
20095;SDS011;10207;50.942;6.900;2022-07-29T00:21:36;6.63;;;2.15;;
20095;SDS011;10207;50.942;6.900;2022-07-29T00:24:02;6.28;;;1.52;;
20095;SDS011;10207;50.942;6.900;2022-07-29T00:26:28;6.05;;;1.45;;
20095;SDS011;10207;50.942;6.900;2022-07-29T00:29:00;5.00;;;1.15;;
20095;SDS011;10207;50.942;6.900;2022-07-29T00:31:26;6.15;;;1.17;;
20095;SDS011;10207;50.942;6.900;2022-07-29T00:33:52;8.43;;;1.00;;
20095;SDS011;10207;50.942;6.900;2022-07-29T00:36:18;6.97;;;1.42;;
20095;SDS011;10207;50.942;6.900;2022-07-29T00:38:43;6.45;;;1.48;;
20095;SDS011;10207;50.942;6.900;2022-07-29T00:41:11;4.38;;;1.05;;
20095;SDS011;10207;50.942;6.900;2022-07-29T00:43:36;4.18;;;1.40;;
20095;SDS011;10207;50.942;6.900;2022-07-29T00:46:02;6.20;;;1.40;;
20095;SDS011;10207;50.942;6.900;2022-07-29T00:48:28;3.10;;;1.20;;
20095;SDS011;10207;50.942;6.900;2022-07-29T00:50:54;6.10;;;1.23;;
20095;SDS011;10207;50.942;6.900;2022-07-29T00:53:21;7.97;;;1.70;;
20095;SDS011;10207;50.942;6.900;2022-07-29T00:55:46;4.60;;;1.20;;
20095;SDS011;10207;50.942;6.900;2022-07-29T00:58:12;6.93;;;1.42;;
20095;SDS011;10207;50.942;6.900;2022-07-29T01:00:42;4.32;;;1.38;;
20095;SDS011;10207;50.942;6.900;2022-07-29T01:03:08;5.40;;;1.30;;
20095;SDS011;10207;50.942;6.900;2022-07-29T01:05:34;6.15;;;1.13;;
20095;SDS011;10207;50.942;6.900;2022-07-29T01:08:00;4.20;;;1.35;;
20095;SDS011;10207;50.942;6.900;2022-07-29T01:10:28;3.92;;;1.20;;
20095;SDS011;10207;50.942;6.900;2022-07-29T01:12:55;2.92;;;1.08;;
20095;SDS011;10207;50.942;6.900;2022-07-29T01:15:22;8.00;;;1.30;;
20095;SDS011;10207;50.942;6.900;2022-07-29T01:30:38;4.15;;;1.50;;
20095;SDS011;10207;50.942;6.900;2022-07-29T01:33:08;4.63;;;1.42;;
20095;SDS011;10207;50.942;6.900;2022-07-29T01:35:38;5.28;;;1.63;;
20095;SDS011;10207;50.942;6.900;2022-07-29T01:38:08;2.85;;;1.13;;
20095;SDS011;10207;50.942;6.900;2022-07-29T01:43:03;4.25;;;1.13;;
20095;SDS011;10207;50.942;6.900;2022-07-29T01:45:34;5.78;;;1.33;;
20095;SDS011;10207;50.942;6.900;2022-07-29T01:48:11;3.15;;;1.20;;
20095;SDS011;10207;50.942;6.900;2022-07-29T01:50:55;6.38;;;2.15;;
20095;SDS011;10207;50.942;6.900;2022-07-29T01:53:26;5.25;;;1.40;;
20095;SDS011;10207;50.942;6.900;2022-07-29T01:55:52;5.07;;;1.42;;
20095;SDS011;10207;50.942;6.900;2022-07-29T01:58:18;2.70;;;1.13;;
20095;SDS011;10207;50.942;6.900;2022-07-29T02:00:44;6.20;;;1.38;;
20095;SDS011;10207;50.942;6.900;2022-07-29T02:03:12;5.45;;;1.08;;
20095;SDS011;10207;50.942;6.900;2022-07-29T02:05:39;5.80;;;1.38;;
20095;SDS011;10207;50.942;6.900;2022-07-29T02:08:07;5.78;;;1.48;;
20095;SDS011;10207;50.942;6.900;2022-07-29T02:10:33;5.60;;;1.30;;
20095;SDS011;10207;50.942;6.900;2022-07-29T02:13:00;6.65;;;1.65;;
20095;SDS011;10207;50.942;6.900;2022-07-29T02:15:28;4.70;;;1.10;;
20095;SDS011;10207;50.942;6.900;2022-07-29T02:17:55;3.58;;;1.08;;
20095;SDS011;10207;50.942;6.900;2022-07-29T02:20:22;5.35;;;1.35;;
20095;SDS011;10207;50.942;6.900;2022-07-29T02:22:50;6.68;;;1.83;;
20095;SDS011;10207;50.942;6.900;2022-07-29T02:25:16;2.60;;;1.00;;
20095;SDS011;10207;50.942;6.900;2022-07-29T02:27:43;4.00;;;1.52;;
20095;SDS011;10207;50.942;6.900;2022-07-29T02:30:09;4.70;;;1.35;;
20095;SDS011;10207;50.942;6.900;2022-07-29T02:32:36;5.43;;;1.20;;
20095;SDS011;10207;50.942;6.900;2022-07-29T02:35:03;6.00;;;1.83;;
20095;SDS011;10207;50.942;6.900;2022-07-29T02:37:29;8.02;;;1.75;;
20095;SDS011;10207;50.942;6.900;2022-07-29T02:39:56;5.13;;;1.77;;
20095;SDS011;10207;50.942;6.900;2022-07-29T02:42:23;3.40;;;1.30;;
20095;SDS011;10207;50.942;6.900;2022-07-29T02:44:49;4.28;;;1.10;;
20095;SDS011;10207;50.942;6.900;2022-07-29T02:47:20;5.80;;;1.77;;
20095;SDS011;10207;50.942;6.900;2022-07-29T02:54:55;5.40;;;1.75;;
20095;SDS011;10207;50.942;6.900;2022-07-29T02:59:47;8.80;;;1.48;;
20095;SDS011;10207;50.942;6.900;2022-07-29T03:02:14;5.82;;;1.70;;
20095;SDS011;10207;50.942;6.900;2022-07-29T03:04:41;8.38;;;1.25;;
20095;SDS011;10207;50.942;6.900;2022-07-29T03:07:08;5.45;;;1.15;;
20095;SDS011;10207;50.942;6.900;2022-07-29T03:09:34;5.57;;;1.50;;
20095;SDS011;10207;50.942;6.900;2022-07-29T03:12:01;6.72;;;1.15;;
20095;SDS011;10207;50.942;6.900;2022-07-29T03:14:27;4.97;;;1.27;;
20095;SDS011;10207;50.942;6.900;2022-07-29T03:16:53;3.22;;;1.10;;
20095;SDS011;10207;50.942;6.900;2022-07-29T03:19:19;4.63;;;1.27;;
20095;SDS011;10207;50.942;6.900;2022-07-29T03:21:45;4.30;;;1.20;;
20095;SDS011;10207;50.942;6.900;2022-07-29T03:24:23;6.75;;;1.58;;
20095;SDS011;10207;50.942;6.900;2022-07-29T03:26:49;6.20;;;1.92;;
20095;SDS011;10207;50.942;6.900;2022-07-29T03:29:15;9.07;;;1.42;;
20095;SDS011;10207;50.942;6.900;2022-07-29T03:31:41;5.10;;;1.10;;
20095;SDS011;10207;50.942;6.900;2022-07-29T03:34:07;4.82;;;1.58;;
20095;SDS011;10207;50.942;6.900;2022-07-29T03:36:33;5.80;;;1.50;;
20095;SDS011;10207;50.942;6.900;2022-07-29T03:38:59;6.40;;;1.30;;
20095;SDS011;10207;50.942;6.900;2022-07-29T03:41:26;6.47;;;1.33;;
20095;SDS011;10207;50.942;6.900;2022-07-29T03:43:52;7.30;;;1.17;;
20095;SDS011;10207;50.942;6.900;2022-07-29T03:46:19;8.00;;;1.30;;
20095;SDS011;10207;50.942;6.900;2022-07-29T03:48:46;6.20;;;1.40;;
20095;SDS011;10207;50.942;6.900;2022-07-29T03:51:14;5.97;;;1.17;;
20095;SDS011;10207;50.942;6.900;2022-07-29T03:53:40;3.63;;;1.50;;
20095;SDS011;10207;50.942;6.900;2022-07-29T03:56:06;2.65;;;1.25;;
20095;SDS011;10207;50.942;6.900;2022-07-29T03:58:33;6.28;;;1.65;;
20095;SDS011;10207;50.942;6.900;2022-07-29T04:00:59;6.45;;;1.98;;
20095;SDS011;10207;50.942;6.900;2022-07-29T04:03:28;8.52;;;2.35;;
20095;SDS011;10207;50.942;6.900;2022-07-29T04:05:57;8.50;;;1.92;;
20095;SDS011;10207;50.942;6.900;2022-07-29T04:08:23;7.22;;;1.48;;
20095;SDS011;10207;50.942;6.900;2022-07-29T04:10:49;6.15;;;1.48;;
20095;SDS011;10207;50.942;6.900;2022-07-29T04:13:15;10.52;;;1.70;;
20095;SDS011;10207;50.942;6.900;2022-07-29T04:15:41;8.52;;;1.40;;
20095;SDS011;10207;50.942;6.900;2022-07-29T04:18:06;7.18;;;1.85;;
20095;SDS011;10207;50.942;6.900;2022-07-29T04:20:32;3.65;;;1.08;;
20095;SDS011;10207;50.942;6.900;2022-07-29T04:22:58;5.15;;;1.30;;
20095;SDS011;10207;50.942;6.900;2022-07-29T04:25:23;7.90;;;1.65;;
20095;SDS011;10207;50.942;6.900;2022-07-29T04:27:49;7.55;;;1.10;;
20095;SDS011;10207;50.942;6.900;2022-07-29T04:30:27;6.07;;;1.45;;
20095;SDS011;10207;50.942;6.900;2022-07-29T04:32:53;6.25;;;1.42;;
20095;SDS011;10207;50.942;6.900;2022-07-29T04:35:19;8.45;;;1.50;;
20095;SDS011;10207;50.942;6.900;2022-07-29T04:37:45;8.93;;;1.63;;
20095;SDS011;10207;50.942;6.900;2022-07-29T04:40:11;4.82;;;1.58;;
20095;SDS011;10207;50.942;6.900;2022-07-29T04:42:37;7.18;;;1.55;;
20095;SDS011;10207;50.942;6.900;2022-07-29T04:45:03;7.32;;;2.22;;
20095;SDS011;10207;50.942;6.900;2022-07-29T04:47:29;6.78;;;1.58;;
20095;SDS011;10207;50.942;6.900;2022-07-29T04:49:55;4.20;;;1.60;;
20095;SDS011;10207;50.942;6.900;2022-07-29T04:52:22;5.47;;;1.75;;
20095;SDS011;10207;50.942;6.900;2022-07-29T04:54:48;3.25;;;1.42;;
20095;SDS011;10207;50.942;6.900;2022-07-29T04:57:14;4.10;;;1.50;;
20095;SDS011;10207;50.942;6.900;2022-07-29T04:59:40;3.72;;;1.45;;
20095;SDS011;10207;50.942;6.900;2022-07-29T05:02:06;8.77;;;1.77;;
20095;SDS011;10207;50.942;6.900;2022-07-29T05:04:32;5.93;;;1.58;;
20095;SDS011;10207;50.942;6.900;2022-07-29T05:06:58;10.65;;;1.92;;
20095;SDS011;10207;50.942;6.900;2022-07-29T05:09:23;4.30;;;1.50;;
20095;SDS011;10207;50.942;6.900;2022-07-29T05:11:49;7.18;;;2.30;;
20095;SDS011;10207;50.942;6.900;2022-07-29T05:14:15;11.07;;;2.38;;
20095;SDS011;10207;50.942;6.900;2022-07-29T05:16:40;6.57;;;1.40;;
20095;SDS011;10207;50.942;6.900;2022-07-29T05:19:07;5.03;;;1.30;;
20095;SDS011;10207;50.942;6.900;2022-07-29T05:21:33;5.68;;;1.73;;
20095;SDS011;10207;50.942;6.900;2022-07-29T05:23:58;6.30;;;2.25;;
20095;SDS011;10207;50.942;6.900;2022-07-29T05:26:24;8.73;;;1.80;;
20095;SDS011;10207;50.942;6.900;2022-07-29T05:28:50;5.07;;;1.50;;
20095;SDS011;10207;50.942;6.900;2022-07-29T05:31:16;6.97;;;1.92;;
20095;SDS011;10207;50.942;6.900;2022-07-29T05:33:41;3.72;;;1.38;;
20095;SDS011;10207;50.942;6.900;2022-07-29T05:36:07;10.95;;;2.00;;
20095;SDS011;10207;50.942;6.900;2022-07-29T05:38:34;8.52;;;1.38;;
20095;SDS011;10207;50.942;6.900;2022-07-29T05:41:01;10.00;;;1.50;;
20095;SDS011;10207;50.942;6.900;2022-07-29T05:43:28;4.45;;;1.40;;
20095;SDS011;10207;50.942;6.900;2022-07-29T05:45:54;4.70;;;1.38;;
20095;SDS011;10207;50.942;6.900;2022-07-29T05:48:20;4.70;;;1.52;;
20095;SDS011;10207;50.942;6.900;2022-07-29T05:50:46;6.57;;;1.77;;
20095;SDS011;10207;50.942;6.900;2022-07-29T05:53:13;6.57;;;2.20;;
20095;SDS011;10207;50.942;6.900;2022-07-29T05:55:39;8.73;;;1.90;;
20095;SDS011;10207;50.942;6.900;2022-07-29T05:58:05;5.80;;;1.27;;
20095;SDS011;10207;50.942;6.900;2022-07-29T06:00:30;12.90;;;1.83;;
20095;SDS011;10207;50.942;6.900;2022-07-29T06:02:56;4.18;;;1.48;;
20095;SDS011;10207;50.942;6.900;2022-07-29T06:05:22;6.78;;;1.65;;
20095;SDS011;10207;50.942;6.900;2022-07-29T06:07:48;6.85;;;1.95;;
20095;SDS011;10207;50.942;6.900;2022-07-29T06:10:14;4.05;;;1.48;;
20095;SDS011;10207;50.942;6.900;2022-07-29T06:12:40;8.57;;;1.60;;
20095;SDS011;10207;50.942;6.900;2022-07-29T06:15:05;5.13;;;1.63;;
20095;SDS011;10207;50.942;6.900;2022-07-29T06:17:31;9.60;;;1.67;;
20095;SDS011;10207;50.942;6.900;2022-07-29T06:19:57;6.75;;;1.83;;
20095;SDS011;10207;50.942;6.900;2022-07-29T06:22:23;7.68;;;1.83;;
20095;SDS011;10207;50.942;6.900;2022-07-29T06:24:49;10.93;;;2.35;;
20095;SDS011;10207;50.942;6.900;2022-07-29T06:27:15;5.60;;;1.80;;
20095;SDS011;10207;50.942;6.900;2022-07-29T06:29:41;7.40;;;2.30;;
20095;SDS011;10207;50.942;6.900;2022-07-29T06:32:07;4.40;;;1.48;;
20095;SDS011;10207;50.942;6.900;2022-07-29T06:34:35;6.63;;;1.85;;
20095;SDS011;10207;50.942;6.900;2022-07-29T06:37:05;8.43;;;1.98;;
20095;SDS011;10207;50.942;6.900;2022-07-29T06:39:31;7.28;;;1.63;;
20095;SDS011;10207;50.942;6.900;2022-07-29T06:41:57;4.22;;;1.80;;
20095;SDS011;10207;50.942;6.900;2022-07-29T06:44:24;5.20;;;1.65;;
20095;SDS011;10207;50.942;6.900;2022-07-29T06:46:50;11.38;;;2.38;;
20095;SDS011;10207;50.942;6.900;2022-07-29T06:49:17;7.15;;;2.38;;
20095;SDS011;10207;50.942;6.900;2022-07-29T06:51:42;7.65;;;2.15;;
20095;SDS011;10207;50.942;6.900;2022-07-29T06:54:08;6.43;;;2.15;;
20095;SDS011;10207;50.942;6.900;2022-07-29T06:56:34;10.77;;;1.90;;
20095;SDS011;10207;50.942;6.900;2022-07-29T06:59:03;5.95;;;1.90;;
20095;SDS011;10207;50.942;6.900;2022-07-29T07:01:29;5.90;;;1.83;;
20095;SDS011;10207;50.942;6.900;2022-07-29T07:03:55;10.55;;;3.30;;
20095;SDS011;10207;50.942;6.900;2022-07-29T07:06:21;12.57;;;3.38;;
20095;SDS011;10207;50.942;6.900;2022-07-29T07:08:47;9.05;;;3.05;;
20095;SDS011;10207;50.942;6.900;2022-07-29T07:11:13;8.63;;;3.53;;
20095;SDS011;10207;50.942;6.900;2022-07-29T07:13:38;9.45;;;3.50;;
20095;SDS011;10207;50.942;6.900;2022-07-29T07:16:04;11.48;;;3.53;;
20095;SDS011;10207;50.942;6.900;2022-07-29T07:18:30;6.72;;;3.80;;
20095;SDS011;10207;50.942;6.900;2022-07-29T07:20:56;12.20;;;3.60;;
20095;SDS011;10207;50.942;6.900;2022-07-29T07:23:22;7.90;;;4.07;;
20095;SDS011;10207;50.942;6.900;2022-07-29T07:25:48;19.45;;;4.93;;
20095;SDS011;10207;50.942;6.900;2022-07-29T07:28:14;13.38;;;4.78;;
20095;SDS011;10207;50.942;6.900;2022-07-29T07:30:41;13.30;;;4.93;;
20095;SDS011;10207;50.942;6.900;2022-07-29T07:33:06;9.60;;;4.32;;
20095;SDS011;10207;50.942;6.900;2022-07-29T07:35:32;5.78;;;3.50;;
20095;SDS011;10207;50.942;6.900;2022-07-29T07:37:58;9.13;;;3.35;;
20095;SDS011;10207;50.942;6.900;2022-07-29T07:40:25;8.85;;;4.32;;
20095;SDS011;10207;50.942;6.900;2022-07-29T07:42:51;17.45;;;7.55;;
20095;SDS011;10207;50.942;6.900;2022-07-29T07:45:16;11.15;;;5.65;;
20095;SDS011;10207;50.942;6.900;2022-07-29T07:47:43;14.73;;;5.88;;
20095;SDS011;10207;50.942;6.900;2022-07-29T07:50:09;13.23;;;4.03;;
20095;SDS011;10207;50.942;6.900;2022-07-29T07:52:37;13.70;;;4.00;;
20095;SDS011;10207;50.942;6.900;2022-07-29T07:55:10;10.23;;;4.70;;
20095;SDS011;10207;50.942;6.900;2022-07-29T07:57:36;10.80;;;4.57;;
20095;SDS011;10207;50.942;6.900;2022-07-29T08:00:02;9.05;;;3.92;;
20095;SDS011;10207;50.942;6.900;2022-07-29T08:02:38;9.98;;;3.72;;
20095;SDS011;10207;50.942;6.900;2022-07-29T08:05:05;9.20;;;3.67;;
20095;SDS011;10207;50.942;6.900;2022-07-29T08:07:30;7.45;;;3.90;;
20095;SDS011;10207;50.942;6.900;2022-07-29T08:09:56;8.57;;;3.50;;
20095;SDS011;10207;50.942;6.900;2022-07-29T08:12:22;9.27;;;3.58;;
20095;SDS011;10207;50.942;6.900;2022-07-29T08:14:48;19.55;;;6.30;;
20095;SDS011;10207;50.942;6.900;2022-07-29T08:17:13;9.02;;;5.00;;
20095;SDS011;10207;50.942;6.900;2022-07-29T08:19:39;13.30;;;6.07;;
20095;SDS011;10207;50.942;6.900;2022-07-29T08:22:05;20.40;;;8.32;;
20095;SDS011;10207;50.942;6.900;2022-07-29T08:24:32;15.63;;;9.25;;
20095;SDS011;10207;50.942;6.900;2022-07-29T08:27:12;14.50;;;7.45;;
20095;SDS011;10207;50.942;6.900;2022-07-29T08:29:38;12.43;;;7.22;;
20095;SDS011;10207;50.942;6.900;2022-07-29T08:32:04;14.93;;;6.03;;
20095;SDS011;10207;50.942;6.900;2022-07-29T08:34:30;15.35;;;6.63;;
20095;SDS011;10207;50.942;6.900;2022-07-29T08:36:56;12.45;;;5.38;;
20095;SDS011;10207;50.942;6.900;2022-07-29T08:39:22;8.68;;;4.53;;
20095;SDS011;10207;50.942;6.900;2022-07-29T08:41:48;12.57;;;4.15;;
20095;SDS011;10207;50.942;6.900;2022-07-29T08:44:18;10.52;;;3.38;;
20095;SDS011;10207;50.942;6.900;2022-07-29T08:46:44;15.13;;;3.70;;
20095;SDS011;10207;50.942;6.900;2022-07-29T08:49:10;11.60;;;2.88;;
20095;SDS011;10207;50.942;6.900;2022-07-29T08:51:36;10.75;;;3.85;;
20095;SDS011;10207;50.942;6.900;2022-07-29T08:54:04;8.63;;;2.85;;
20095;SDS011;10207;50.942;6.900;2022-07-29T08:56:30;8.18;;;3.03;;
20095;SDS011;10207;50.942;6.900;2022-07-29T08:58:58;6.40;;;3.38;;
20095;SDS011;10207;50.942;6.900;2022-07-29T09:01:24;10.85;;;3.20;;
20095;SDS011;10207;50.942;6.900;2022-07-29T09:03:51;7.43;;;3.05;;
20095;SDS011;10207;50.942;6.900;2022-07-29T09:06:19;10.02;;;3.15;;
20095;SDS011;10207;50.942;6.900;2022-07-29T09:08:46;8.38;;;3.00;;
20095;SDS011;10207;50.942;6.900;2022-07-29T09:11:12;10.60;;;3.03;;
20095;SDS011;10207;50.942;6.900;2022-07-29T09:13:39;6.20;;;2.70;;
20095;SDS011;10207;50.942;6.900;2022-07-29T09:16:05;6.55;;;2.90;;
20095;SDS011;10207;50.942;6.900;2022-07-29T09:18:32;7.30;;;2.35;;
20095;SDS011;10207;50.942;6.900;2022-07-29T09:20:58;23.73;;;3.80;;
20095;SDS011;10207;50.942;6.900;2022-07-29T09:26:28;7.05;;;2.95;;
20095;SDS011;10207;50.942;6.900;2022-07-29T09:28:54;6.18;;;2.67;;
20095;SDS011;10207;50.942;6.900;2022-07-29T09:31:19;7.63;;;4.00;;
20095;SDS011;10207;50.942;6.900;2022-07-29T09:33:51;10.65;;;3.20;;
20095;SDS011;10207;50.942;6.900;2022-07-29T09:36:17;7.45;;;2.67;;
20095;SDS011;10207;50.942;6.900;2022-07-29T09:38:43;7.25;;;2.72;;
20095;SDS011;10207;50.942;6.900;2022-07-29T09:41:22;7.63;;;1.95;;
20095;SDS011;10207;50.942;6.900;2022-07-29T09:43:54;13.18;;;2.90;;
20095;SDS011;10207;50.942;6.900;2022-07-29T09:46:20;6.88;;;2.28;;
20095;SDS011;10207;50.942;6.900;2022-07-29T09:48:55;6.30;;;2.60;;
20095;SDS011;10207;50.942;6.900;2022-07-29T09:51:30;6.78;;;2.28;;
20095;SDS011;10207;50.942;6.900;2022-07-29T09:53:56;9.80;;;2.67;;
20095;SDS011;10207;50.942;6.900;2022-07-29T09:56:40;12.20;;;2.33;;
20095;SDS011;10207;50.942;6.900;2022-07-29T09:59:07;4.97;;;2.28;;
20095;SDS011;10207;50.942;6.900;2022-07-29T10:01:33;13.38;;;2.50;;
20095;SDS011;10207;50.942;6.900;2022-07-29T10:04:00;8.15;;;2.40;;
20095;SDS011;10207;50.942;6.900;2022-07-29T10:06:25;6.85;;;3.25;;
20095;SDS011;10207;50.942;6.900;2022-07-29T10:08:51;7.45;;;2.97;;
20095;SDS011;10207;50.942;6.900;2022-07-29T10:11:18;6.30;;;2.22;;
20095;SDS011;10207;50.942;6.900;2022-07-29T10:13:45;13.13;;;2.15;;
20095;SDS011;10207;50.942;6.900;2022-07-29T10:16:11;9.85;;;2.03;;
20095;SDS011;10207;50.942;6.900;2022-07-29T10:18:38;10.82;;;2.22;;
20095;SDS011;10207;50.942;6.900;2022-07-29T10:21:04;6.07;;;2.38;;
20095;SDS011;10207;50.942;6.900;2022-07-29T10:23:30;6.60;;;2.72;;
20095;SDS011;10207;50.942;6.900;2022-07-29T10:25:56;5.93;;;2.15;;
20095;SDS011;10207;50.942;6.900;2022-07-29T10:28:22;10.10;;;2.75;;
20095;SDS011;10207;50.942;6.900;2022-07-29T10:30:48;6.03;;;2.22;;
20095;SDS011;10207;50.942;6.900;2022-07-29T10:43:56;5.70;;;2.53;;
20095;SDS011;10207;50.942;6.900;2022-07-29T10:46:22;5.63;;;2.58;;
20095;SDS011;10207;50.942;6.900;2022-07-29T10:54:17;10.45;;;2.35;;
20095;SDS011;10207;50.942;6.900;2022-07-29T10:56:43;9.75;;;2.38;;
20095;SDS011;10207;50.942;6.900;2022-07-29T11:01:45;7.45;;;1.90;;
20095;SDS011;10207;50.942;6.900;2022-07-29T11:04:11;7.13;;;2.28;;
20095;SDS011;10207;50.942;6.900;2022-07-29T11:09:22;4.18;;;1.77;;
20095;SDS011;10207;50.942;6.900;2022-07-29T11:11:48;6.13;;;2.30;;
20095;SDS011;10207;50.942;6.900;2022-07-29T11:14:14;5.30;;;1.88;;
20095;SDS011;10207;50.942;6.900;2022-07-29T11:17:00;5.63;;;2.28;;
20095;SDS011;10207;50.942;6.900;2022-07-29T11:19:30;4.93;;;2.00;;
20095;SDS011;10207;50.942;6.900;2022-07-29T11:21:56;7.40;;;2.17;;
20095;SDS011;10207;50.942;6.900;2022-07-29T11:29:33;5.22;;;2.08;;
20095;SDS011;10207;50.942;6.900;2022-07-29T11:32:10;6.38;;;2.22;;
20095;SDS011;10207;50.942;6.900;2022-07-29T11:34:37;5.78;;;1.98;;
20095;SDS011;10207;50.942;6.900;2022-07-29T11:39:41;5.88;;;2.78;;
20095;SDS011;10207;50.942;6.900;2022-07-29T11:47:38;6.35;;;1.92;;
20095;SDS011;10207;50.942;6.900;2022-07-29T11:50:06;9.55;;;1.85;;
20095;SDS011;10207;50.942;6.900;2022-07-29T11:52:37;4.72;;;1.52;;
20095;SDS011;10207;50.942;6.900;2022-07-29T11:55:09;4.25;;;1.42;;
20095;SDS011;10207;50.942;6.900;2022-07-29T11:57:35;4.95;;;1.77;;
20095;SDS011;10207;50.942;6.900;2022-07-29T12:00:05;6.65;;;1.40;;
20095;SDS011;10207;50.942;6.900;2022-07-29T12:02:39;4.60;;;1.40;;
20095;SDS011;10207;50.942;6.900;2022-07-29T12:05:07;5.68;;;1.90;;
20095;SDS011;10207;50.942;6.900;2022-07-29T12:07:33;2.72;;;1.27;;
20095;SDS011;10207;50.942;6.900;2022-07-29T12:10:00;5.82;;;1.58;;
20095;SDS011;10207;50.942;6.900;2022-07-29T12:12:27;8.15;;;1.70;;
20095;SDS011;10207;50.942;6.900;2022-07-29T12:14:53;7.15;;;2.05;;
20095;SDS011;10207;50.942;6.900;2022-07-29T12:17:30;4.47;;;1.83;;
20095;SDS011;10207;50.942;6.900;2022-07-29T12:19:57;3.53;;;1.38;;
20095;SDS011;10207;50.942;6.900;2022-07-29T12:24:53;4.40;;;1.63;;
20095;SDS011;10207;50.942;6.900;2022-07-29T12:27:18;7.68;;;1.60;;
20095;SDS011;10207;50.942;6.900;2022-07-29T12:29:45;6.18;;;1.23;;
20095;SDS011;10207;50.942;6.900;2022-07-29T12:32:11;4.97;;;1.50;;
20095;SDS011;10207;50.942;6.900;2022-07-29T12:34:36;4.75;;;1.70;;
20095;SDS011;10207;50.942;6.900;2022-07-29T12:37:02;2.55;;;1.30;;
20095;SDS011;10207;50.942;6.900;2022-07-29T12:39:28;4.20;;;1.58;;
20095;SDS011;10207;50.942;6.900;2022-07-29T12:41:54;5.22;;;1.63;;
20095;SDS011;10207;50.942;6.900;2022-07-29T12:44:20;7.70;;;1.70;;
20095;SDS011;10207;50.942;6.900;2022-07-29T12:47:00;7.93;;;2.75;;
20095;SDS011;10207;50.942;6.900;2022-07-29T12:49:26;4.50;;;1.58;;
20095;SDS011;10207;50.942;6.900;2022-07-29T12:51:52;6.88;;;1.77;;
20095;SDS011;10207;50.942;6.900;2022-07-29T12:54:18;4.80;;;1.58;;
20095;SDS011;10207;50.942;6.900;2022-07-29T12:56:44;7.13;;;1.45;;
20095;SDS011;10207;50.942;6.900;2022-07-29T12:59:11;5.35;;;1.50;;
20095;SDS011;10207;50.942;6.900;2022-07-29T13:01:38;3.13;;;1.23;;
20095;SDS011;10207;50.942;6.900;2022-07-29T13:04:03;6.07;;;1.83;;
20095;SDS011;10207;50.942;6.900;2022-07-29T13:06:39;6.30;;;1.38;;
20095;SDS011;10207;50.942;6.900;2022-07-29T13:09:10;3.83;;;1.25;;
20095;SDS011;10207;50.942;6.900;2022-07-29T13:11:37;5.18;;;1.58;;
20095;SDS011;10207;50.942;6.900;2022-07-29T13:14:04;5.18;;;1.30;;
20095;SDS011;10207;50.942;6.900;2022-07-29T13:16:30;2.75;;;1.30;;
20095;SDS011;10207;50.942;6.900;2022-07-29T13:19:05;4.10;;;1.83;;
20095;SDS011;10207;50.942;6.900;2022-07-29T13:21:31;6.25;;;1.80;;
20095;SDS011;10207;50.942;6.900;2022-07-29T13:23:57;8.48;;;1.83;;
20095;SDS011;10207;50.942;6.900;2022-07-29T13:26:23;5.78;;;2.03;;
20095;SDS011;10207;50.942;6.900;2022-07-29T13:28:48;5.05;;;1.80;;
20095;SDS011;10207;50.942;6.900;2022-07-29T13:31:15;7.00;;;2.97;;
20095;SDS011;10207;50.942;6.900;2022-07-29T13:33:41;4.78;;;2.25;;
20095;SDS011;10207;50.942;6.900;2022-07-29T13:36:06;6.90;;;2.50;;
20095;SDS011;10207;50.942;6.900;2022-07-29T13:38:32;7.03;;;2.47;;
20095;SDS011;10207;50.942;6.900;2022-07-29T13:40:59;6.85;;;2.35;;
20095;SDS011;10207;50.942;6.900;2022-07-29T13:43:27;5.32;;;2.22;;
20095;SDS011;10207;50.942;6.900;2022-07-29T13:45:53;9.32;;;2.58;;
20095;SDS011;10207;50.942;6.900;2022-07-29T13:48:20;5.45;;;2.00;;
20095;SDS011;10207;50.942;6.900;2022-07-29T13:50:46;5.82;;;1.95;;
20095;SDS011;10207;50.942;6.900;2022-07-29T13:53:13;8.38;;;2.63;;
20095;SDS011;10207;50.942;6.900;2022-07-29T13:55:39;5.78;;;2.08;;
20095;SDS011;10207;50.942;6.900;2022-07-29T13:58:05;5.85;;;2.45;;
20095;SDS011;10207;50.942;6.900;2022-07-29T14:00:30;6.82;;;2.25;;
20095;SDS011;10207;50.942;6.900;2022-07-29T14:02:56;6.50;;;2.00;;
20095;SDS011;10207;50.942;6.900;2022-07-29T14:05:22;5.30;;;1.95;;
20095;SDS011;10207;50.942;6.900;2022-07-29T14:07:48;8.05;;;2.50;;
20095;SDS011;10207;50.942;6.900;2022-07-29T14:10:14;4.07;;;2.00;;
20095;SDS011;10207;50.942;6.900;2022-07-29T14:12:40;5.10;;;2.10;;
20095;SDS011;10207;50.942;6.900;2022-07-29T14:15:07;7.40;;;2.20;;
20095;SDS011;10207;50.942;6.900;2022-07-29T14:17:33;4.70;;;1.85;;
20095;SDS011;10207;50.942;6.900;2022-07-29T14:19:59;4.50;;;2.45;;
20095;SDS011;10207;50.942;6.900;2022-07-29T14:22:25;6.40;;;1.98;;
20095;SDS011;10207;50.942;6.900;2022-07-29T14:24:51;7.53;;;2.13;;
20095;SDS011;10207;50.942;6.900;2022-07-29T14:27:17;10.15;;;2.85;;
20095;SDS011;10207;50.942;6.900;2022-07-29T14:29:43;10.23;;;2.50;;
20095;SDS011;10207;50.942;6.900;2022-07-29T14:32:09;12.43;;;3.33;;
20095;SDS011;10207;50.942;6.900;2022-07-29T14:34:40;11.70;;;4.55;;
20095;SDS011;10207;50.942;6.900;2022-07-29T14:37:06;6.43;;;3.28;;
20095;SDS011;10207;50.942;6.900;2022-07-29T14:39:32;8.20;;;3.05;;
20095;SDS011;10207;50.942;6.900;2022-07-29T14:41:58;10.80;;;2.80;;
20095;SDS011;10207;50.942;6.900;2022-07-29T14:44:24;9.65;;;2.55;;
20095;SDS011;10207;50.942;6.900;2022-07-29T14:46:54;5.05;;;2.03;;
20095;SDS011;10207;50.942;6.900;2022-07-29T14:49:20;9.85;;;2.80;;
20095;SDS011;10207;50.942;6.900;2022-07-29T14:51:45;8.90;;;2.22;;
20095;SDS011;10207;50.942;6.900;2022-07-29T14:54:11;6.18;;;1.88;;
20095;SDS011;10207;50.942;6.900;2022-07-29T14:56:37;4.65;;;2.08;;
20095;SDS011;10207;50.942;6.900;2022-07-29T14:59:04;5.22;;;2.00;;
20095;SDS011;10207;50.942;6.900;2022-07-29T15:01:30;3.25;;;1.60;;
20095;SDS011;10207;50.942;6.900;2022-07-29T15:03:55;4.05;;;1.90;;
20095;SDS011;10207;50.942;6.900;2022-07-29T15:06:21;6.25;;;1.40;;
20095;SDS011;10207;50.942;6.900;2022-07-29T15:08:47;4.25;;;2.03;;
20095;SDS011;10207;50.942;6.900;2022-07-29T15:11:13;6.30;;;1.88;;
20095;SDS011;10207;50.942;6.900;2022-07-29T15:13:40;5.20;;;2.40;;
20095;SDS011;10207;50.942;6.900;2022-07-29T15:16:06;4.07;;;1.27;;
20095;SDS011;10207;50.942;6.900;2022-07-29T15:18:32;3.47;;;1.48;;
20095;SDS011;10207;50.942;6.900;2022-07-29T15:20:57;4.38;;;1.65;;
20095;SDS011;10207;50.942;6.900;2022-07-29T15:23:23;2.33;;;1.05;;
20095;SDS011;10207;50.942;6.900;2022-07-29T15:25:49;4.68;;;1.65;;
20095;SDS011;10207;50.942;6.900;2022-07-29T15:28:15;4.32;;;1.67;;
20095;SDS011;10207;50.942;6.900;2022-07-29T15:30:40;4.20;;;1.60;;
20095;SDS011;10207;50.942;6.900;2022-07-29T15:33:07;4.95;;;1.83;;
20095;SDS011;10207;50.942;6.900;2022-07-29T15:35:35;3.80;;;1.40;;
20095;SDS011;10207;50.942;6.900;2022-07-29T15:38:01;4.85;;;1.67;;
20095;SDS011;10207;50.942;6.900;2022-07-29T15:40:27;3.50;;;1.40;;
20095;SDS011;10207;50.942;6.900;2022-07-29T15:42:53;5.68;;;2.13;;
20095;SDS011;10207;50.942;6.900;2022-07-29T15:45:20;5.25;;;1.38;;
20095;SDS011;10207;50.942;6.900;2022-07-29T15:47:46;5.32;;;1.73;;